Danvers, MA (01923)

4:07 AM EST on November 23, 2014 (GMT -0500)
Danvers | Change Station
CLOSE
Current Station
Personal Weather Station
Location: Danvers, MA
Elevation: 46 ft
Nearby Weather Stations

Elev 46 ft 42.55 °N, 70.95 °W | Updated 32 seconds ago

Mostly Cloudy
Mostly Cloudy
43.0 °F
Feels Like 43 °F
N
0.7
Wind Variable Wind from South
Gusts 1.6 mph

Today
High -- | Low -- °F
--% Chance of Precip.
Yesterday
High -- | Low -- °F
Precip. -- in
6:44 AM 4:15 PM
New Moon, 1% visible
Pressure 30.05 in
Visibility 10.0 miles
Clouds Few 10000 ft
Mostly Cloudy 11000 ft
Windchill 43 °F
Dew Point 25 °F
Humidity 48%
Rainfall 0.00 in
Snow Depth Not available.
UV 0 out of 12
Pollen .10 out of 12
Air Quality Not available.
Flu Activity Not available.
METAR KBVY 230853Z AUTO 23008KT 10SM FEW100 BKN110 06/M04 A3006 RMK AO2 SLP174 T00611044 51007

More Conditions Fewer Conditions

Pressure 30.05 in
Visibility 10.0 miles
Clouds Few 10000 ft
Mostly Cloudy 11000 ft
Windchill 43 °F
Dew Point 25 °F
Humidity 48%
Rainfall 0.00 in
Snow Depth Not available.
UV 0 out of 12
Pollen .10 out of 12
Air Quality Not available.
Flu Activity Not available.
METAR KBVY 230853Z AUTO 23008KT 10SM FEW100 BKN110 06/M04 A3006 RMK AO2 SLP174 T00611044 51007

More Conditions Fewer Conditions

10-Day Weather Forecast

Almanac

Astronomy

Nov. 23, 2014 Rise Set
Actual Time
Civil Twilight
Nautical Twilight
Astronomical Twilight
Moon
Length of Visible Light
Length of Day
Tomorrow will be .
, % of the Moon is Illuminated

Today's Extremes

State Highs State Lows

Community

WunderPhotos

Upload Photos

1,773,024 photos uploaded!

WunderBlogs® & News

Nearby

Air Quality

  Air Quality AQ Index Pollutant
Not available.

Snow Depth

Station Depth Elevation

Earthquake Activity

City Distance Mag. Time & Date
Minimum magnitude displayed is 2.5.

Coastal Water Temperatures

Place Temperature

Nearby Weather Stations